Amr R — XUAX5 — position and weather

sailwx.info

Track history (hours):
 
Tides and Currents Weather Stations Pressure Air Temp Water Temp Dewpoint Dewpoint Depression Visibility Wind Speed Wind Dir Waves Ship Positions

Amr R

Last reported at 2014-Dec-18 17:12 UTC. Time now 2014-Dec-18 18:20 UTC.
Position N 40°58' E 028°55'.

Length 130 m; draft 5 m.

Type: Cargo ship. MMSI: 514427000.

Date/timePositionNaut miles runAvg speedWind from/ knotsBaromVisibWave heightAir tempDewpointWater temp
2014-Dec-18 17:12N 40°58' E 028°55'0 0.1
2014-Dec-18 16:30N 40°58' E 028°55'0 0.0
2014-Dec-18 15:33N 40°58' E 028°55'0 0.0
2014-Dec-18 14:23N 40°58' E 028°55'0 0.1
2014-Dec-18 13:23N 40°58' E 028°55'0 0.0
2014-Dec-18 12:29N 40°58' E 028°55'0 0.0
2014-Dec-18 11:17N 40°58' E 028°55'0 0.0
2014-Dec-18 10:08N 40°58' E 028°55'0 0.0
2014-Dec-18 09:16N 40°58' E 028°55'0 0.0
2014-Dec-18 08:33N 40°58' E 028°55'0 0.0
2014-Dec-18 06:22N 40°58' E 028°55'0 0.0
2014-Dec-18 05:22N 40°58' E 028°55'0 0.0
2014-Dec-18 04:26N 40°58' E 028°55'0 0.0
2014-Dec-18 03:34N 40°58' E 028°55'0 0.1
2014-Dec-18 02:30N 40°58' E 028°55'0 0.0
2014-Dec-18 01:32N 40°58' E 028°55'0 0.0
2014-Dec-18 00:31N 40°58' E 028°55'0 0.0
2014-Dec-17 23:33N 40°58' E 028°55'0 0.0
2014-Dec-17 22:22N 40°58' E 028°55'0 0.0
2014-Dec-17 21:28N 40°58' E 028°55'3 2.9
2014-Dec-17 20:32N 40°55' E 028°57'235 7.8
2014-Dec-16 14:28N 37°51' E 025°49'19 9.8
2014-Dec-16 12:33N 37°33' E 025°55'10 9.6
2014-Dec-16 11:33N 37°25' E 026°02'10 9.8
2014-Dec-16 10:33N 37°18' E 026°12'9 9.4
2014-Dec-16 09:33N 37°12' E 026°20'9 9.2
2014-Dec-16 08:33N 37°06' E 026°28'12 9.6
2014-Dec-16 07:16N 36°56' E 026°39'10 9.4
2014-Dec-16 06:09N 36°48' E 026°47'6 9.5
2014-Dec-16 05:30N 36°43' E 026°51'9 9.2
2014-Dec-16 04:33N 36°36' E 026°58'92 9.2
2014-Dec-15 18:33N 35°12' E 027°43'9 8.6
2014-Dec-15 17:28N 35°03' E 027°47'  
Track history (hours):
 
Tides and Currents Weather Stations Pressure Air Temp Water Temp Dewpoint Dewpoint Depression Visibility Wind Speed Wind Dir Waves Ship Positions

Amr R

Last reported at 2014-Dec-18 17:12 UTC. Time now 2014-Dec-18 18:20 UTC.
Position N 40°58' E 028°55'.

Length 130 m; draft 5 m.

Type: Cargo ship. MMSI: 514427000.

Date/timePositionNaut miles runAvg speedWind from/ knotsBaromVisibWave heightAir tempDewpointWater temp
2014-Dec-18 17:12N 40°58' E 028°55'0 0.1
2014-Dec-18 16:30N 40°58' E 028°55'0 0.0
2014-Dec-18 15:33N 40°58' E 028°55'0 0.0
2014-Dec-18 14:23N 40°58' E 028°55'0 0.1
2014-Dec-18 13:23N 40°58' E 028°55'0 0.0
2014-Dec-18 12:29N 40°58' E 028°55'0 0.0
2014-Dec-18 11:17N 40°58' E 028°55'0 0.0
2014-Dec-18 10:08N 40°58' E 028°55'0 0.0
2014-Dec-18 09:16N 40°58' E 028°55'0 0.0
2014-Dec-18 08:33N 40°58' E 028°55'0 0.0
2014-Dec-18 06:22N 40°58' E 028°55'0 0.0
2014-Dec-18 05:22N 40°58' E 028°55'0 0.0
2014-Dec-18 04:26N 40°58' E 028°55'0 0.0
2014-Dec-18 03:34N 40°58' E 028°55'0 0.1
2014-Dec-18 02:30N 40°58' E 028°55'0 0.0
2014-Dec-18 01:32N 40°58' E 028°55'0 0.0
2014-Dec-18 00:31N 40°58' E 028°55'0 0.0
2014-Dec-17 23:33N 40°58' E 028°55'0 0.0
2014-Dec-17 22:22N 40°58' E 028°55'0 0.0
2014-Dec-17 21:28N 40°58' E 028°55'3 2.9
2014-Dec-17 20:32N 40°55' E 028°57'235 7.8
2014-Dec-16 14:28N 37°51' E 025°49'19 9.8
2014-Dec-16 12:33N 37°33' E 025°55'10 9.6
2014-Dec-16 11:33N 37°25' E 026°02'10 9.8
2014-Dec-16 10:33N 37°18' E 026°12'9 9.4
2014-Dec-16 09:33N 37°12' E 026°20'9 9.2
2014-Dec-16 08:33N 37°06' E 026°28'12 9.6
2014-Dec-16 07:16N 36°56' E 026°39'10 9.4
2014-Dec-16 06:09N 36°48' E 026°47'6 9.5
2014-Dec-16 05:30N 36°43' E 026°51'9 9.2
2014-Dec-16 04:33N 36°36' E 026°58'92 9.2
2014-Dec-15 18:33N 35°12' E 027°43'9 8.6
2014-Dec-15 17:28N 35°03' E 027°47'  

Dump ship's entire track history